Time;durP1;ratioP1;P1;durP2;ratioP2;P2;SDS_P1;SDS_P2;PMS_P1;PMS_P2;Temp;Humidity;BMP_temperature;BMP_pressure;BME280_temperature;BME280_humidity;BME280_pressure;Samples;Min_cycle;Max_cycle;Signal;HPM_P1;HPM_P2
2022/07/23 00:00:46;;;;;;;4.65;3.35;;;20.10;95.40;;;;;;5070248;28;20398;-79
2022/07/23 00:03:12;;;;;;;3.75;3.40;;;20.10;95.30;;;;;;5052859;28;20029;-78
2022/07/23 00:05:37;;;;;;;7.28;4.95;;;20.10;95.20;;;;;;5051730;28;20040;-80
2022/07/23 00:08:03;;;;;;;8.05;4.00;;;20.10;95.10;;;;;;5070500;28;20047;-78
2022/07/23 00:10:28;;;;;;;4.03;3.63;;;20.10;95.10;;;;;;5070702;28;20037;-78
2022/07/23 00:12:54;;;;;;;4.72;3.60;;;20.10;95.10;;;;;;5052028;28;20029;-78
2022/07/23 00:15:19;;;;;;;7.38;3.78;;;20.10;95.20;;;;;;5070434;28;20036;-78
2022/07/23 00:17:45;;;;;;;4.63;3.97;;;20.00;95.30;;;;;;5070320;28;20025;-77
2022/07/23 00:20:11;;;;;;;5.55;4.15;;;20.10;95.30;;;;;;5070616;28;20544;-78
2022/07/23 00:22:45;;;;;;;10.93;3.78;;;20.10;95.20;;;;;;5051539;28;20040;-78
2022/07/23 00:25:10;;;;;;;4.38;3.63;;;20.00;95.40;;;;;;5070372;28;20058;-77
2022/07/23 00:27:35;;;;;;;5.85;4.00;;;20.10;95.40;;;;;;5057508;28;20033;-77
2022/07/23 00:30:01;;;;;;;5.13;3.50;;;20.10;95.30;;;;;;5069197;28;20501;-78
2022/07/23 00:32:27;;;;;;;4.68;3.83;;;20.10;95.30;;;;;;5050617;28;20026;-80
2022/07/23 00:34:52;;;;;;;4.07;3.63;;;20.10;95.30;;;;;;5046155;28;20044;-82
2022/07/23 00:37:17;;;;;;;4.72;3.95;;;20.10;95.30;;;;;;5069287;28;20036;-78
2022/07/23 00:39:43;;;;;;;5.60;3.45;;;20.10;95.30;;;;;;5070073;28;20428;-78
2022/07/23 00:42:08;;;;;;;4.82;3.35;;;20.10;95.40;;;;;;5070116;28;20055;-78
2022/07/23 00:44:34;;;;;;;7.43;3.75;;;20.00;95.40;;;;;;5070443;28;20031;-80
2022/07/23 00:47:00;;;;;;;6.07;3.97;;;20.10;95.40;;;;;;5051531;28;20043;-77
2022/07/23 00:49:28;;;;;;;6.15;4.10;;;20.00;95.40;;;;;;5070281;28;20032;-80
2022/07/23 00:51:55;;;;;;;7.78;4.47;;;20.00;95.50;;;;;;5069466;28;21049;-80
2022/07/23 00:54:23;;;;;;;5.00;3.95;;;19.90;95.70;;;;;;5070212;28;20028;-77
2022/07/23 00:56:49;;;;;;;4.88;4.05;;;19.90;95.70;;;;;;5069064;28;20123;-77
2022/07/23 00:59:14;;;;;;;4.47;3.92;;;19.80;95.70;;;;;;5052108;28;20112;-77
2022/07/23 01:01:41;;;;;;;5.50;4.15;;;19.90;95.70;;;;;;5069401;28;20033;-77
2022/07/23 01:04:07;;;;;;;4.82;3.83;;;19.90;95.80;;;;;;5070192;28;20082;-75
2022/07/23 01:06:36;;;;;;;4.05;3.65;;;19.90;95.70;;;;;;5050956;28;20032;-77
2022/07/23 01:09:02;;;;;;;5.53;4.30;;;20.00;95.70;;;;;;5069990;28;20021;-77
2022/07/23 01:11:27;;;;;;;5.05;4.00;;;20.00;95.80;;;;;;5051552;28;20031;-79
2022/07/23 01:13:53;;;;;;;6.68;3.95;;;20.00;95.60;;;;;;5051654;28;20033;-77
2022/07/23 01:16:19;;;;;;;4.25;3.83;;;20.00;95.60;;;;;;5051039;28;20085;-79
2022/07/23 01:18:44;;;;;;;4.22;3.72;;;19.90;95.60;;;;;;5069589;28;20038;-77
2022/07/23 01:21:15;;;;;;;5.68;4.50;;;19.90;95.70;;;;;;5051649;28;20037;-77
2022/07/23 01:23:41;;;;;;;7.72;4.28;;;19.90;95.70;;;;;;5052283;28;20158;-79
2022/07/23 01:26:06;;;;;;;6.22;4.65;;;19.90;95.80;;;;;;5054976;28;20526;-76
2022/07/23 01:28:32;;;;;;;4.70;4.00;;;19.90;95.80;;;;;;5073425;28;20042;-80
2022/07/23 01:30:58;;;;;;;5.22;4.50;;;19.80;95.80;;;;;;5073226;28;20033;-77
2022/07/23 01:33:23;;;;;;;4.97;3.83;;;19.90;95.90;;;;;;5055496;28;20119;-80
2022/07/23 01:35:48;;;;;;;5.50;4.03;;;19.80;95.90;;;;;;5054536;28;20033;-77
2022/07/23 01:38:14;;;;;;;6.05;4.55;;;19.80;95.90;;;;;;5073722;28;20041;-77
2022/07/23 01:40:39;;;;;;;3.50;3.17;;;19.80;96.00;;;;;;5055005;28;20021;-76
2022/07/23 01:43:05;;;;;;;6.68;4.60;;;19.80;95.90;;;;;;5072974;28;20040;-77
2022/07/23 01:45:30;;;;;;;5.00;3.75;;;19.80;96.20;;;;;;5072790;28;20493;-78
2022/07/23 01:47:57;;;;;;;5.43;3.85;;;19.60;96.30;;;;;;5073070;28;20419;-77
2022/07/23 01:50:22;;;;;;;4.65;4.22;;;19.60;96.40;;;;;;5073292;28;20032;-77
2022/07/23 01:52:48;;;;;;;4.97;4.10;;;19.60;96.40;;;;;;5054855;28;20028;-77
2022/07/23 01:55:13;;;;;;;5.18;3.95;;;19.70;96.30;;;;;;5073067;28;20048;-78
2022/07/23 01:57:39;;;;;;;5.75;4.45;;;19.70;96.20;;;;;;5073257;28;20068;-77
2022/07/23 02:00:05;;;;;;;6.43;4.53;;;19.60;96.30;;;;;;5055795;28;20028;-79
2022/07/23 02:02:30;;;;;;;8.02;4.47;;;19.60;96.30;;;;;;5072765;28;20540;-78
2022/07/23 02:04:56;;;;;;;4.20;3.80;;;19.50;96.40;;;;;;5055186;28;20052;-81
2022/07/23 02:07:21;;;;;;;5.80;4.38;;;19.40;96.50;;;;;;5054502;28;20036;-77
2022/07/23 02:09:47;;;;;;;4.60;3.70;;;19.50;96.30;;;;;;5054455;28;20032;-77
2022/07/23 02:12:12;;;;;;;5.18;4.30;;;19.50;96.30;;;;;;5072761;28;20055;-76
2022/07/23 02:14:38;;;;;;;6.95;4.72;;;19.50;96.30;;;;;;5072510;28;20024;-78
2022/07/23 02:17:03;;;;;;;5.22;4.18;;;19.60;96.00;;;;;;5072109;28;20032;-79
2022/07/23 02:19:29;;;;;;;5.18;4.22;;;19.50;96.00;;;;;;5054882;28;20445;-77
2022/07/23 02:21:54;;;;;;;5.00;4.18;;;19.50;96.10;;;;;;5054310;28;20479;-78
2022/07/23 02:24:20;;;;;;;7.03;3.92;;;19.50;96.20;;;;;;5072532;28;20067;-82
2022/07/23 02:26:46;;;;;;;6.38;4.30;;;19.40;96.30;;;;;;5053724;28;20119;-77
2022/07/23 02:29:12;;;;;;;4.90;3.40;;;19.30;96.40;;;;;;5054930;28;20633;-77
2022/07/23 02:31:37;;;;;;;4.75;4.03;;;19.30;96.40;;;;;;5072069;28;20056;-77
2022/07/23 02:34:03;;;;;;;4.45;3.80;;;19.30;96.50;;;;;;5054410;28;20120;-77
2022/07/23 02:36:28;;;;;;;5.15;4.32;;;19.20;96.60;;;;;;5052378;28;20033;-77
2022/07/23 02:38:54;;;;;;;7.63;4.20;;;19.30;96.50;;;;;;5053616;28;20024;-77
2022/07/23 02:41:19;;;;;;;7.05;4.15;;;19.30;96.50;;;;;;5072694;28;20060;-77
2022/07/23 02:43:45;;;;;;;5.68;5.07;;;19.30;96.40;;;;;;5072689;28;20099;-75
2022/07/23 02:46:10;;;;;;;6.53;4.30;;;19.30;96.30;;;;;;5071830;28;20039;-77
2022/07/23 02:48:36;;;;;;;5.25;3.70;;;19.40;96.20;;;;;;5054097;28;20044;-79
2022/07/23 02:51:01;;;;;;;4.35;3.75;;;19.30;96.20;;;;;;5054203;28;20028;-78
2022/07/23 02:53:27;;;;;;;5.30;4.28;;;19.30;96.30;;;;;;5072239;28;20036;-77
2022/07/23 02:55:52;;;;;;;5.30;4.75;;;19.20;96.50;;;;;;5071296;28;20137;-78
2022/07/23 02:58:18;;;;;;;6.13;4.88;;;19.20;96.80;;;;;;5072190;28;20029;-77
2022/07/23 03:00:44;;;;;;;4.80;4.30;;;19.10;97.10;;;;;;5071628;28;20032;-78
2022/07/23 03:03:09;;;;;;;5.07;4.57;;;19.00;97.10;;;;;;5053895;28;20531;-77
2022/07/23 03:05:35;;;;;;;8.50;4.72;;;19.00;97.20;;;;;;5052816;28;20111;-77
2022/07/23 03:08:01;;;;;;;4.85;3.75;;;19.10;97.20;;;;;;5071565;28;20062;-81
2022/07/23 03:10:27;;;;;;;8.57;4.55;;;19.10;97.00;;;;;;5071442;28;20037;-80
2022/07/23 03:12:52;;;;;;;5.28;4.43;;;19.10;97.00;;;;;;5052907;28;20052;-79
2022/07/23 03:15:18;;;;;;;5.28;4.50;;;19.20;96.80;;;;;;5071473;28;20532;-77
2022/07/23 03:17:43;;;;;;;9.60;4.63;;;19.20;96.80;;;;;;5070949;28;20106;-80
2022/07/23 03:20:09;;;;;;;5.25;4.50;;;19.20;96.70;;;;;;5053576;28;20037;-77
2022/07/23 03:22:35;;;;;;;5.72;4.30;;;19.10;97.10;;;;;;5071029;28;20070;-77
2022/07/23 03:25:00;;;;;;;5.85;4.30;;;19.00;97.10;;;;;;5053372;28;20028;-81
2022/07/23 03:27:28;;;;;;;5.60;4.18;;;18.90;97.10;;;;;;5071007;28;20475;-79
2022/07/23 03:29:55;;;;;;;5.20;3.90;;;18.90;97.00;;;;;;5053175;28;20028;-81
2022/07/23 03:32:21;;;;;;;7.22;4.18;;;18.90;97.10;;;;;;5071162;28;20025;-80
2022/07/23 03:34:47;;;;;;;7.78;4.78;;;18.80;97.20;;;;;;5052768;28;20025;-77
2022/07/23 03:37:13;;;;;;;7.38;4.95;;;18.80;97.10;;;;;;5052563;28;20097;-77
2022/07/23 03:39:39;;;;;;;6.47;4.40;;;18.80;97.40;;;;;;5070895;28;20033;-77
2022/07/23 03:42:05;;;;;;;6.65;3.90;;;18.90;97.10;;;;;;5070786;28;20043;-77
2022/07/23 03:44:31;;;;;;;6.20;4.57;;;18.80;97.10;;;;;;5071076;28;20079;-77
2022/07/23 03:46:56;;;;;;;4.88;4.03;;;18.80;97.30;;;;;;5069834;28;20096;-77
2022/07/23 03:49:22;;;;;;;8.65;4.93;;;18.80;97.30;;;;;;5070829;28;20032;-77
2022/07/23 03:51:47;;;;;;;4.72;4.30;;;18.80;97.30;;;;;;5070406;28;20083;-78
2022/07/23 03:54:13;;;;;;;6.38;4.43;;;18.80;97.30;;;;;;5053006;28;20036;-77
2022/07/23 03:56:39;;;;;;;5.93;4.22;;;18.60;97.60;;;;;;5051406;28;20048;-75
2022/07/23 03:59:04;;;;;;;5.00;4.35;;;18.60;97.60;;;;;;5052826;28;20033;-78
2022/07/23 04:01:30;;;;;;;5.20;4.22;;;18.70;97.70;;;;;;5070216;28;20037;-81
2022/07/23 04:03:55;;;;;;;7.63;4.82;;;18.60;97.70;;;;;;5052643;28;20033;-78
2022/07/23 04:06:21;;;;;;;6.13;4.57;;;18.70;97.70;;;;;;5052144;28;20134;-77
2022/07/23 04:08:46;;;;;;;7.63;4.70;;;18.80;97.60;;;;;;5052528;28;20090;-76
2022/07/23 04:11:12;;;;;;;7.63;4.82;;;18.80;97.50;;;;;;5070295;28;20044;-77
2022/07/23 04:13:37;;;;;;;6.78;4.57;;;18.90;97.30;;;;;;5070593;28;20051;-77
2022/07/23 04:16:03;;;;;;;7.10;4.75;;;18.90;97.20;;;;;;5070140;28;20040;-81
2022/07/23 04:18:29;;;;;;;5.93;4.50;;;19.00;97.20;;;;;;5052628;28;20032;-80
2022/07/23 04:20:55;;;;;;;6.05;4.18;;;19.00;97.10;;;;;;5085625;28;20047;-78
2022/07/23 04:23:21;;;;;;;5.40;4.45;;;18.90;97.00;;;;;;5070834;28;20040;-78
2022/07/23 04:25:46;;;;;;;5.93;4.22;;;19.00;96.90;;;;;;5051287;28;20036;-77
2022/07/23 04:28:12;;;;;;;6.95;3.88;;;18.90;96.80;;;;;;5052684;28;20553;-77
2022/07/23 04:30:37;;;;;;;8.65;4.60;;;18.90;96.80;;;;;;5070037;28;20600;-77
2022/07/23 04:33:06;;;;;;;5.90;4.20;;;18.90;96.70;;;;;;5052194;28;20390;-77
2022/07/23 04:35:32;;;;;;;6.13;4.03;;;18.90;96.70;;;;;;5069656;28;20025;-77
2022/07/23 04:37:59;;;;;;;6.85;4.35;;;18.90;96.50;;;;;;5052196;28;20482;-78
2022/07/23 04:40:25;;;;;;;8.75;4.22;;;18.90;96.40;;;;;;5051684;28;20032;-77
2022/07/23 04:42:50;;;;;;;5.57;4.15;;;18.80;96.50;;;;;;5069876;28;20461;-79
2022/07/23 04:45:16;;;;;;;6.53;4.22;;;18.80;96.50;;;;;;5070113;28;20075;-78
2022/07/23 04:47:41;;;;;;;7.28;3.97;;;18.80;96.60;;;;;;5070042;28;20059;-78
2022/07/23 04:50:07;;;;;;;14.27;5.75;;;18.90;97.10;;;;;;5070581;28;20032;-82
2022/07/23 04:52:32;;;;;;;10.93;4.80;;;18.90;97.70;;;;;;5070198;28;20453;-77
2022/07/23 04:54:58;;;;;;;10.60;5.47;;;18.90;98.10;;;;;;5070152;28;20040;-77
2022/07/23 04:57:23;;;;;;;6.53;4.93;;;18.90;98.30;;;;;;5068628;28;20729;-77
2022/07/23 04:59:49;;;;;;;6.15;4.88;;;18.90;98.70;;;;;;5069972;28;20056;-79
2022/07/23 05:02:14;;;;;;;11.82;5.38;;;18.80;98.80;;;;;;5070352;28;20103;-78
2022/07/23 05:04:40;;;;;;;9.27;5.53;;;18.70;99.20;;;;;;5071089;28;20025;-79
2022/07/23 05:07:05;;;;;;;9.07;6.15;;;18.70;99.30;;;;;;5052759;28;20027;-81
2022/07/23 05:09:31;;;;;;;8.43;5.70;;;18.60;99.40;;;;;;5070038;28;20032;-81
2022/07/23 05:11:57;;;;;;;8.77;5.78;;;18.50;99.70;;;;;;5070121;28;20796;-78
2022/07/23 05:14:22;;;;;;;8.63;6.03;;;18.50;99.90;;;;;;5070457;28;20064;-81
2022/07/23 05:16:48;;;;;;;8.50;5.85;;;18.50;99.90;;;;;;5069342;28;20075;-77
2022/07/23 05:19:13;;;;;;;7.38;5.50;;;18.50;99.80;;;;;;5052081;28;20056;-77
2022/07/23 05:21:39;;;;;;;8.65;5.88;;;18.40;99.90;;;;;;5051749;28;20032;-80
2022/07/23 05:24:05;;;;;;;9.38;5.80;;;18.40;99.90;;;;;;5051462;28;20029;-78
2022/07/23 05:26:31;;;;;;;16.20;6.63;;;18.40;99.90;;;;;;5051529;28;20025;-77
2022/07/23 05:28:56;;;;;;;9.80;6.28;;;18.40;99.90;;;;;;5051959;28;20035;-83
2022/07/23 05:31:22;;;;;;;10.23;6.68;;;18.20;99.90;;;;;;5070092;28;20071;-82
2022/07/23 05:33:47;;;;;;;10.18;6.70;;;18.10;99.90;;;;;;5051920;28;20499;-77
2022/07/23 05:36:13;;;;;;;15.27;7.80;;;17.90;99.90;;;;;;5069424;28;20045;-80
2022/07/23 05:38:38;;;;;;;10.55;6.50;;;17.80;99.90;;;;;;5051849;28;20033;-80
2022/07/23 05:41:04;;;;;;;11.18;6.45;;;17.80;99.90;;;;;;5051529;28;20041;-80
2022/07/23 05:43:29;;;;;;;10.95;6.18;;;17.80;99.90;;;;;;5052585;28;20083;-78
2022/07/23 05:45:55;;;;;;;10.25;6.57;;;17.70;99.90;;;;;;5052515;28;20060;-78
2022/07/23 05:48:20;;;;;;;10.85;6.28;;;17.60;99.90;;;;;;5052371;28;20123;-78
2022/07/23 05:50:47;;;;;;;11.65;6.13;;;17.50;99.90;;;;;;5051446;28;20029;-78
2022/07/23 05:53:13;;;;;;;12.73;6.90;;;17.50;99.90;;;;;;5069314;28;20033;-81
2022/07/23 05:55:38;;;;;;;9.82;6.60;;;17.60;99.90;;;;;;5068695;28;20098;-78
2022/07/23 05:58:04;;;;;;;9.00;5.53;;;17.60;99.90;;;;;;5051831;28;20032;-80
2022/07/23 06:00:30;;;;;;;9.15;5.97;;;17.70;99.90;;;;;;5069770;28;20379;-77
2022/07/23 06:02:55;;;;;;;11.38;6.53;;;17.70;99.90;;;;;;5068969;28;20055;-82
2022/07/23 06:05:21;;;;;;;10.63;6.13;;;17.70;99.90;;;;;;5051101;28;20028;-80
2022/07/23 06:07:46;;;;;;;9.40;5.97;;;17.90;99.90;;;;;;5069295;28;20378;-85
2022/07/23 06:10:12;;;;;;;11.23;5.57;;;17.90;99.90;;;;;;5053371;28;20070;-77
2022/07/23 06:12:38;;;;;;;8.90;5.60;;;18.10;99.90;;;;;;5054838;28;20043;-81
2022/07/23 06:15:04;;;;;;;9.75;5.55;;;18.10;99.90;;;;;;5055116;28;20035;-85
2022/07/23 06:17:29;;;;;;;9.00;5.22;;;18.30;99.90;;;;;;5054445;28;20440;-78
2022/07/23 06:19:55;;;;;;;7.03;4.68;;;18.40;99.90;;;;;;5072687;28;20025;-78
2022/07/23 06:22:21;;;;;;;7.32;5.32;;;18.50;99.90;;;;;;5072756;28;20561;-79
2022/07/23 06:24:47;;;;;;;7.22;4.93;;;18.60;99.90;;;;;;5054895;28;20052;-78
2022/07/23 06:27:12;;;;;;;9.48;5.28;;;18.70;99.90;;;;;;5054498;28;20479;-78
2022/07/23 06:29:40;;;;;;;7.00;5.03;;;18.80;99.90;;;;;;5073351;28;20103;-78
2022/07/23 06:32:06;;;;;;;10.20;4.78;;;18.90;99.90;;;;;;5072526;28;20020;-82
2022/07/23 06:34:31;;;;;;;5.07;4.22;;;19.00;99.90;;;;;;5073238;28;20029;-78
2022/07/23 06:36:57;;;;;;;6.75;4.25;;;19.00;99.90;;;;;;5053472;28;20032;-78
2022/07/23 06:39:22;;;;;;;7.95;4.30;;;19.10;99.90;;;;;;5072616;28;20033;-81
2022/07/23 06:41:48;;;;;;;6.63;4.05;;;19.20;99.90;;;;;;5054208;28;20032;-78
2022/07/23 06:44:13;;;;;;;7.55;3.97;;;19.30;99.90;;;;;;5072681;28;20495;-79
2022/07/23 06:46:39;;;;;;;6.80;4.22;;;19.40;99.90;;;;;;5053508;28;20498;-79
2022/07/23 06:49:04;;;;;;;7.88;4.70;;;19.60;99.90;;;;;;5054581;28;20039;-78
2022/07/23 06:51:30;;;;;;;9.98;5.32;;;19.70;99.90;;;;;;5072017;28;20501;-78
2022/07/23 06:53:56;;;;;;;8.85;4.78;;;19.70;99.40;;;;;;5054557;28;20032;-82
2022/07/23 06:56:21;;;;;;;10.98;4.13;;;19.70;99.40;;;;;;5053603;28;20184;-78
2022/07/23 06:58:47;;;;;;;6.47;4.10;;;19.70;99.10;;;;;;5054159;28;20094;-82
2022/07/23 07:01:12;;;;;;;6.20;4.32;;;19.70;99.30;;;;;;5053761;28;20129;-80
2022/07/23 07:03:38;;;;;;;5.75;4.30;;;19.70;99.60;;;;;;5071910;28;20753;-77
2022/07/23 07:06:03;;;;;;;5.63;3.97;;;19.80;99.40;;;;;;5053575;28;20036;-79
2022/07/23 07:08:29;;;;;;;7.15;4.47;;;19.80;99.10;;;;;;5072245;28;20112;-77
2022/07/23 07:10:54;;;;;;;6.03;4.15;;;19.70;99.10;;;;;;5071331;28;20482;-79
2022/07/23 07:13:20;;;;;;;6.15;4.47;;;19.70;99.20;;;;;;5054016;28;20025;-82
2022/07/23 07:15:45;;;;;;;6.78;3.97;;;19.70;99.10;;;;;;5053119;28;20078;-77
2022/07/23 07:18:11;;;;;;;6.78;4.60;;;19.70;98.80;;;;;;5071676;28;20040;-77
2022/07/23 07:20:36;;;;;;;5.45;3.75;;;19.80;99.10;;;;;;5053553;28;20027;-78
2022/07/23 07:23:02;;;;;;;4.63;3.83;;;19.90;99.00;;;;;;5052914;28;20032;-82
2022/07/23 07:25:27;;;;;;;9.75;4.68;;;20.00;99.30;;;;;;5053061;28;20029;-84
2022/07/23 07:27:53;;;;;;;7.25;4.45;;;20.10;99.00;;;;;;5053581;28;20029;-77
2022/07/23 07:30:18;;;;;;;7.20;4.32;;;20.10;98.80;;;;;;5071711;28;20040;-84
2022/07/23 07:32:44;;;;;;;6.50;4.30;;;20.20;98.90;;;;;;5052951;28;20032;-78
2022/07/23 07:35:10;;;;;;;9.27;4.72;;;20.20;99.00;;;;;;5053501;28;20032;-83
2022/07/23 07:37:35;;;;;;;9.00;5.13;;;20.20;98.80;;;;;;5071009;28;20039;-78
2022/07/23 07:40:01;;;;;;;8.55;5.32;;;20.20;99.30;;;;;;5052973;28;20032;-78
2022/07/23 07:42:26;;;;;;;8.05;5.07;;;20.20;99.10;;;;;;5053076;28;20102;-78
2022/07/23 07:44:52;;;;;;;9.63;4.38;;;20.20;99.40;;;;;;5071396;28;20072;-83
2022/07/23 07:47:18;;;;;;;9.50;5.03;;;20.30;99.70;;;;;;5053115;28;20544;-79
2022/07/23 07:49:43;;;;;;;7.35;5.50;;;20.40;99.20;;;;;;5071930;28;20502;-78
2022/07/23 07:52:09;;;;;;;6.85;5.85;;;20.40;98.70;;;;;;5053267;28;20162;-79
2022/07/23 07:54:35;;;;;;;9.18;6.22;;;20.30;99.10;;;;;;5053110;28;20115;-79
2022/07/23 07:57:01;;;;;;;6.80;5.35;;;20.20;99.00;;;;;;5070764;28;20116;-79
2022/07/23 07:59:26;;;;;;;9.18;6.35;;;20.20;99.30;;;;;;5071683;28;20031;-79
2022/07/23 08:01:52;;;;;;;7.00;6.03;;;20.20;99.60;;;;;;5070692;28;20024;-83
2022/07/23 08:04:18;;;;;;;9.35;5.70;;;20.30;99.60;;;;;;5053264;28;20040;-79
2022/07/23 08:06:44;;;;;;;12.20;5.43;;;20.40;98.90;;;;;;5052876;28;20056;-81
2022/07/23 08:09:09;;;;;;;9.68;5.60;;;20.50;99.00;;;;;;5054324;28;20105;-79
2022/07/23 08:11:35;;;;;;;10.18;5.85;;;20.60;99.00;;;;;;5072640;28;20036;-79
2022/07/23 08:14:00;;;;;;;7.57;5.10;;;20.60;99.10;;;;;;5054943;28;20097;-79
2022/07/23 08:16:26;;;;;;;7.82;5.85;;;20.70;98.70;;;;;;5071972;28;20045;-80
2022/07/23 08:18:51;;;;;;;8.07;5.90;;;20.80;99.10;;;;;;5053162;28;20025;-80
2022/07/23 08:21:17;;;;;;;8.27;5.97;;;20.90;98.90;;;;;;5053268;28;20240;-81
2022/07/23 08:23:42;;;;;;;9.30;6.47;;;21.10;98.50;;;;;;5052496;28;20064;-80
2022/07/23 08:26:08;;;;;;;9.52;5.90;;;21.10;98.30;;;;;;5070080;28;20115;-83
2022/07/23 08:28:33;;;;;;;8.82;4.90;;;21.20;98.60;;;;;;5052822;28;20044;-79
2022/07/23 08:30:59;;;;;;;6.65;5.85;;;21.30;98.20;;;;;;5052004;28;20025;-79
2022/07/23 08:33:25;;;;;;;8.70;5.47;;;21.50;97.90;;;;;;5052681;28;20386;-81
2022/07/23 08:35:52;;;;;;;9.85;5.65;;;21.50;97.20;;;;;;5051533;28;20036;-81
2022/07/23 08:38:20;;;;;;;6.45;4.80;;;21.50;97.30;;;;;;5052284;28;20028;-79
2022/07/23 08:40:48;;;;;;;6.80;5.00;;;21.50;97.40;;;;;;5070109;28;20021;-82
2022/07/23 08:43:25;;;;;;;6.05;5.40;;;21.60;96.70;;;;;;5052496;28;20063;-79
2022/07/23 08:45:56;;;;;;;7.78;6.05;;;21.60;96.80;;;;;;5051757;28;20024;-79
2022/07/23 08:48:24;;;;;;;11.98;6.68;;;21.60;97.60;;;;;;5070774;28;20244;-80
2022/07/23 08:50:54;;;;;;;8.43;7.43;;;21.70;97.00;;;;;;5069725;28;20107;-79
2022/07/23 08:53:20;;;;;;;8.38;6.78;;;21.60;96.70;;;;;;5070789;28;20036;-80
2022/07/23 08:55:48;;;;;;;8.60;6.65;;;21.50;96.70;;;;;;5069434;28;20029;-78
2022/07/23 08:58:14;;;;;;;11.07;7.13;;;21.40;97.00;;;;;;5052052;28;20136;-79
2022/07/23 09:00:40;;;;;;;10.13;7.15;;;21.30;97.40;;;;;;5070030;28;20036;-79
2022/07/23 09:03:05;;;;;;;11.18;8.23;;;21.20;97.30;;;;;;5069924;28;20028;-80
2022/07/23 09:05:31;;;;;;;10.05;7.70;;;21.10;97.80;;;;;;5069323;28;20036;-82
2022/07/23 09:08:14;;;;;;;11.45;7.53;;;21.20;97.90;;;;;;5070187;28;20367;-85
2022/07/23 09:10:57;;;;;;;10.55;8.70;;;21.20;97.80;;;;;;5069679;28;20036;-78
2022/07/23 09:13:23;;;;;;;;;;;21.20;97.00;;;;;;5052504;28;20029;-81
2022/07/23 09:15:50;;;;;;;10.80;7.63;;;21.20;97.30;;;;;;5051310;28;20498;-82
2022/07/23 09:18:16;;;;;;;11.40;8.25;;;21.20;97.40;;;;;;5052409;28;20025;-83
2022/07/23 09:20:43;;;;;;;10.15;7.15;;;21.10;97.50;;;;;;5051638;28;20412;-79
2022/07/23 09:23:09;;;;;;;10.23;6.45;;;20.90;97.80;;;;;;5070035;28;20025;-81
2022/07/23 09:25:34;;;;;;;9.70;7.47;;;20.80;97.80;;;;;;5069347;28;20033;-79
2022/07/23 09:28:02;;;;;;;10.93;6.80;;;20.70;98.00;;;;;;5069812;28;20107;-79
2022/07/23 09:30:31;;;;;;;9.88;8.40;;;20.70;97.90;;;;;;5052307;28;20426;-79
2022/07/23 09:33:11;;;;;;;10.63;7.90;;;20.60;98.20;;;;;;5069232;28;20021;-79
2022/07/23 09:35:51;;;;;;;13.30;8.32;;;20.30;98.60;;;;;;5069545;28;20551;-79
2022/07/23 09:38:18;;;;;;;10.45;8.25;;;20.40;98.50;;;;;;5085269;28;20426;-79
2022/07/23 09:40:45;;;;;;;9.18;7.85;;;20.30;99.20;;;;;;5070073;28;20085;-80
2022/07/23 09:43:12;;;;;;;11.23;8.30;;;20.30;98.90;;;;;;5052634;28;20382;-79
2022/07/23 09:45:39;;;;;;;9.13;7.88;;;20.40;98.90;;;;;;5053550;28;20032;-79
2022/07/23 09:48:16;;;;;;;9.10;7.45;;;20.50;98.60;;;;;;5055650;28;20036;-79
2022/07/23 09:50:44;;;;;;;10.50;7.40;;;20.60;98.20;;;;;;5055405;28;20116;-80
2022/07/23 09:53:09;;;;;;;10.95;7.72;;;20.70;98.40;;;;;;5055336;28;20051;-81
2022/07/23 09:55:37;;;;;;;11.15;7.47;;;20.70;98.40;;;;;;5055313;28;20413;-79
2022/07/23 09:58:05;;;;;;;9.27;6.90;;;20.70;98.30;;;;;;5055552;28;20029;-78
2022/07/23 10:00:31;;;;;;;9.27;6.88;;;20.70;98.20;;;;;;5055918;28;20021;-79
2022/07/23 10:02:59;;;;;;;7.07;6.18;;;20.80;98.10;;;;;;5072787;28;20041;-79
2022/07/23 10:05:25;;;;;;;8.98;6.68;;;20.90;98.10;;;;;;5072912;28;20124;-80
2022/07/23 10:07:51;;;;;;;10.25;7.60;;;20.90;97.70;;;;;;5073011;28;20530;-83
2022/07/23 10:10:17;;;;;;;7.55;6.10;;;20.90;97.70;;;;;;5055359;28;20027;-81
2022/07/23 10:15:32;;;;;;;8.52;6.65;;;20.70;97.80;;;;;;5050834;28;20128;-79
2022/07/23 10:17:58;;;;;;;8.68;6.57;;;20.70;98.10;;;;;;5073111;28;20312;-79
2022/07/23 10:20:24;;;;;;;9.23;6.55;;;20.70;97.80;;;;;;5073395;28;20557;-83
2022/07/23 10:23:19;;;;;;;8.98;6.40;;;20.60;98.10;;;;;;5053893;28;20089;-80
2022/07/23 10:26:17;;;;;;;8.73;6.03;;;20.60;97.60;;;;;;5072607;28;20115;-80
2022/07/23 10:29:06;;;;;;;9.50;6.32;;;20.80;97.50;;;;;;5054806;28;20724;-79
2022/07/23 10:31:47;;;;;;;7.75;5.70;;;21.00;96.70;;;;;;5072384;28;20024;-80
2022/07/23 10:34:29;;;;;;;8.93;6.35;;;21.20;96.60;;;;;;5054757;28;20476;-83
2022/07/23 10:37:24;;;;;;;9.02;6.55;;;21.20;95.70;;;;;;5071743;28;20733;-80
2022/07/23 10:40:09;;;;;;;8.60;5.93;;;21.20;96.00;;;;;;5072424;28;20483;-84
2022/07/23 10:42:36;;;;;;;8.27;5.70;;;21.30;96.00;;;;;;5072603;28;20036;-80
2022/07/23 10:45:21;;;;;;;10.40;6.70;;;21.50;95.70;;;;;;5054502;28;20486;-81
2022/07/23 10:47:46;;;;;;;9.57;6.45;;;21.70;95.70;;;;;;5072065;28;20059;-80
2022/07/23 10:50:34;;;;;;;7.10;5.35;;;21.70;95.20;;;;;;5054319;28;20029;-80
2022/07/23 10:53:06;;;;;;;7.75;6.15;;;21.80;95.10;;;;;;5052265;28;20116;-80
2022/07/23 10:55:31;;;;;;;7.50;5.65;;;21.80;95.00;;;;;;5048996;28;20048;-81
2022/07/23 10:57:57;;;;;;;10.20;5.47;;;21.80;94.70;;;;;;5053535;28;20032;-79
2022/07/23 11:00:25;;;;;;;10.70;5.65;;;21.80;95.30;;;;;;5054381;28;20483;-80
2022/07/23 11:02:56;;;;;;;9.27;6.63;;;21.80;95.00;;;;;;5071900;28;20027;-80
2022/07/23 11:05:24;;;;;;;9.27;6.97;;;21.90;95.40;;;;;;5053691;28;20403;-80
2022/07/23 11:08:04;;;;;;;11.25;7.28;;;22.10;95.10;;;;;;5071492;28;20024;-84
2022/07/23 11:10:51;;;;;;;10.77;8.40;;;22.20;95.30;;;;;;5053811;28;20550;-80
2022/07/23 11:13:22;;;;;;;10.95;8.00;;;22.30;95.30;;;;;;5072210;28;20123;-84
2022/07/23 11:16:15;;;;;;;9.75;7.75;;;22.40;94.30;;;;;;5052944;28;20390;-86
2022/07/23 11:18:43;;;;;;;9.13;7.63;;;22.50;94.50;;;;;;5054003;28;20433;-80
2022/07/23 11:21:26;;;;;;;12.63;8.95;;;22.40;94.70;;;;;;5072551;28;20031;-82
2022/07/23 11:24:07;;;;;;;;;;;22.40;94.80;;;;;;5054331;28;20111;-80
2022/07/23 11:26:49;;;;;;;13.40;8.32;;;22.30;94.90;;;;;;5053381;28;20155;-84
2022/07/23 11:29:36;;;;;;;11.32;8.93;;;22.30;95.10;;;;;;5071883;28;20025;-81
2022/07/23 11:32:17;;;;;;;10.88;8.75;;;22.00;95.40;;;;;;5053510;28;20036;-80
2022/07/23 11:34:46;;;;;;;10.55;9.00;;;22.00;95.30;;;;;;5071683;28;20493;-81
2022/07/23 11:37:26;;;;;;;9.65;8.23;;;22.00;95.30;;;;;;5086342;28;20035;-82
2022/07/23 11:39:55;;;;;;;12.13;8.50;;;22.10;95.10;;;;;;5053115;28;20032;-80
2022/07/23 11:42:20;;;;;;;12.43;9.15;;;22.10;94.60;;;;;;5053272;28;20035;-80
2022/07/23 11:44:47;;;;;;;9.55;7.38;;;22.20;94.90;;;;;;5053219;28;20028;-80
2022/07/23 11:47:13;;;;;;;10.65;8.65;;;22.20;94.90;;;;;;5052448;28;20049;-80
2022/07/23 11:49:39;;;;;;;9.65;7.50;;;22.40;94.30;;;;;;5071027;28;20485;-80
2022/07/23 11:52:14;;;;;;;10.73;8.20;;;22.50;94.60;;;;;;5071173;28;20121;-81
2022/07/23 11:54:56;;;;;;;10.23;7.78;;;22.60;94.10;;;;;;5052257;28;20028;-84
2022/07/23 11:57:34;;;;;;;8.85;7.95;;;22.70;94.00;;;;;;5070036;28;20044;-80
2022/07/23 12:00:18;;;;;;;9.23;7.68;;;22.80;94.20;;;;;;5086650;28;20094;-87
2022/07/23 12:02:47;;;;;;;8.70;7.28;;;22.90;93.70;;;;;;5052703;28;20478;-84
2022/07/23 12:05:15;;;;;;;10.25;6.88;;;23.10;93.50;;;;;;5071344;28;20032;-87
2022/07/23 12:07:44;;;;;;;8.18;6.25;;;23.30;94.20;;;;;;5052214;28;20024;-80
2022/07/23 12:10:15;;;;;;;7.10;6.18;;;23.50;92.70;;;;;;5053579;28;20035;-81
2022/07/23 12:13:04;;;;;;;8.00;6.45;;;23.60;92.80;;;;;;5052569;28;20025;-81
2022/07/23 12:15:38;;;;;;;15.27;8.50;;;23.70;92.20;;;;;;5070467;28;20040;-84
2022/07/23 12:18:05;;;;;;;10.77;8.25;;;23.60;92.60;;;;;;5052911;28;20025;-82
2022/07/23 12:20:34;;;;;;;9.23;7.32;;;23.60;92.10;;;;;;5070961;28;20064;-82
2022/07/23 12:23:02;;;;;;;9.07;8.05;;;23.60;92.30;;;;;;5052492;28;20086;-80
2022/07/23 12:25:30;;;;;;;11.60;8.15;;;23.70;92.40;;;;;;5069609;28;20559;-81
2022/07/23 12:28:16;;;;;;;12.52;8.80;;;23.80;92.00;;;;;;5052606;28;20024;-85
2022/07/23 12:30:53;;;;;;;8.85;7.93;;;23.80;91.60;;;;;;5051948;28;20032;-81
2022/07/23 12:33:23;;;;;;;10.13;7.95;;;23.90;92.00;;;;;;5070393;28;20034;-80
2022/07/23 12:35:49;;;;;;;9.05;7.90;;;24.00;91.80;;;;;;5069216;28;20386;-81
2022/07/23 12:38:20;;;;;;;10.77;8.32;;;24.10;91.60;;;;;;5070086;28;20020;-85
2022/07/23 12:40:48;;;;;;;8.02;7.05;;;24.20;91.40;;;;;;5069482;28;20428;-80
2022/07/23 12:43:28;;;;;;;10.18;7.57;;;24.30;91.80;;;;;;5052473;28;20032;-80
2022/07/23 12:45:56;;;;;;;10.20;7.53;;;24.10;91.80;;;;;;5069515;28;20028;-80
2022/07/23 12:48:26;;;;;;;9.60;7.05;;;24.20;91.40;;;;;;5070312;28;20031;-79
2022/07/23 12:50:54;;;;;;;8.80;7.30;;;24.30;91.30;;;;;;5051886;28;20029;-81